createdAt,value
2018-08-16T00:02:47.664Z,17.20
2018-08-16T00:12:47.222Z,17.30
2018-08-16T00:20:15.300Z,17.40
2018-08-16T00:22:44.924Z,17.40
2018-08-16T00:25:14.670Z,17.40
2018-08-16T00:27:44.210Z,17.40
2018-08-16T00:32:43.473Z,17.40
2018-08-16T00:35:12.797Z,17.40
2018-08-16T00:42:41.575Z,17.60
2018-08-16T00:45:11.746Z,17.60
2018-08-16T00:50:11.775Z,17.70
2018-08-16T00:52:41.254Z,17.70
2018-08-16T00:55:11.696Z,17.70
2018-08-16T00:57:40.996Z,17.70
2018-08-16T01:00:13.360Z,17.70
2018-08-16T01:02:42.714Z,17.80
2018-08-16T01:05:12.464Z,17.70
2018-08-16T01:07:41.872Z,17.80
2018-08-16T01:10:13.851Z,17.80
2018-08-16T01:12:43.976Z,17.80
2018-08-16T01:15:15.101Z,17.80
2018-08-16T01:17:44.403Z,17.80
2018-08-16T01:25:12.165Z,17.80
2018-08-16T01:32:39.904Z,17.80
2018-08-16T01:50:06.364Z,17.90
2018-08-16T01:52:35.687Z,17.90
2018-08-16T02:00:03.137Z,17.90
2018-08-16T02:02:32.484Z,17.90
2018-08-16T02:05:02.730Z,17.90
2018-08-16T02:07:32.085Z,18.00
2018-08-16T02:22:25.585Z,17.80
2018-08-16T02:24:54.878Z,17.80
2018-08-16T02:29:53.052Z,17.70
2018-08-16T02:32:22.359Z,17.70
2018-08-16T02:34:51.668Z,17.70
2018-08-16T02:39:49.846Z,17.70
2018-08-16T02:52:14.425Z,17.60
2018-08-16T02:54:43.765Z,17.50
2018-08-16T02:59:41.946Z,17.40
2018-08-16T03:04:40.053Z,17.40
2018-08-16T03:07:09.358Z,17.50
2018-08-16T03:09:38.678Z,17.60
2018-08-16T03:12:10.087Z,17.60
2018-08-16T03:19:37.382Z,17.60
2018-08-16T03:22:06.960Z,17.60
2018-08-16T03:24:36.265Z,17.60
2018-08-16T03:27:05.652Z,17.60
2018-08-16T03:29:34.961Z,17.60
2018-08-16T03:32:04.309Z,17.50
2018-08-16T03:37:02.622Z,17.70
2018-08-16T03:42:00.875Z,17.70
2018-08-16T03:44:30.140Z,17.70
2018-08-16T03:51:57.181Z,17.70
2018-08-16T03:54:26.402Z,17.70
2018-08-16T03:56:55.711Z,17.70
2018-08-16T04:09:20.592Z,17.90
2018-08-16T04:11:49.921Z,17.80
2018-08-16T04:14:19.204Z,17.80
2018-08-16T04:16:48.452Z,17.90
2018-08-16T04:19:17.800Z,17.90
2018-08-16T04:21:47.101Z,17.90
2018-08-16T04:24:16.343Z,17.90
2018-08-16T04:31:43.558Z,17.80
2018-08-16T04:36:41.784Z,17.90
2018-08-16T04:39:11.521Z,17.90
2018-08-16T04:41:40.942Z,17.90
2018-08-16T04:46:38.929Z,18.00
2018-08-16T04:49:08.292Z,18.00
2018-08-16T05:04:01.655Z,18.00
2018-08-16T05:06:31.004Z,18.00
2018-08-16T05:09:00.270Z,18.00
2018-08-16T05:11:29.594Z,18.10
2018-08-16T05:13:58.871Z,18.10
2018-08-16T05:16:28.185Z,18.10
2018-08-16T05:18:57.461Z,18.20
2018-08-16T05:23:55.606Z,18.20
2018-08-16T05:26:24.845Z,18.20
2018-08-16T05:28:54.108Z,18.30
2018-08-16T05:31:23.426Z,18.30
2018-08-16T05:36:21.520Z,18.20
2018-08-16T05:51:15.808Z,18.40
2018-08-16T05:58:42.789Z,18.30
2018-08-16T06:11:07.428Z,18.40
2018-08-16T06:16:06.273Z,18.30
2018-08-16T06:28:56.053Z,18.30
2018-08-16T06:33:54.204Z,18.30
2018-08-16T06:36:23.430Z,18.40
2018-08-16T06:41:21.692Z,18.40
2018-08-16T06:51:17.470Z,18.40
2018-08-16T06:53:46.795Z,18.50
2018-08-16T07:06:11.466Z,18.80
2018-08-16T07:08:40.766Z,18.90
2018-08-16T07:11:10.161Z,18.90
2018-08-16T07:16:08.380Z,19.10
2018-08-16T07:18:37.731Z,19.00
2018-08-16T07:23:35.945Z,19.10
2018-08-16T07:31:03.092Z,19.40
2018-08-16T07:36:01.227Z,19.70
2018-08-16T07:38:30.840Z,19.70
2018-08-16T07:43:29.103Z,20.10
2018-08-16T07:45:58.396Z,20.00
2018-08-16T07:50:56.648Z,19.60
2018-08-16T07:53:25.977Z,19.50
2018-08-16T07:55:55.414Z,19.30
2018-08-16T08:00:53.622Z,19.30
2018-08-16T08:05:51.713Z,19.50
2018-08-16T08:13:18.936Z,19.40
2018-08-16T08:15:48.206Z,19.40
2018-08-16T08:20:46.342Z,19.60
2018-08-16T08:23:15.705Z,19.70
2018-08-16T08:33:11.538Z,20.00
2018-08-16T08:38:12.819Z,20.60
2018-08-16T08:43:15.484Z,20.50
2018-08-16T08:45:44.804Z,21.00
2018-08-16T08:53:22.860Z,21.00
2018-08-16T08:56:03.270Z,21.10
2018-08-16T09:01:07.148Z,20.80
2018-08-16T09:03:36.482Z,20.80
2018-08-16T09:06:05.959Z,20.90
2018-08-16T09:11:16.350Z,20.80
2018-08-16T09:13:58.852Z,21.00
2018-08-16T09:21:28.821Z,20.80
2018-08-16T09:29:01.068Z,20.60
2018-08-16T09:31:41.367Z,20.80
2018-08-16T09:36:46.032Z,20.90
2018-08-16T10:06:42.253Z,20.40
2018-08-16T10:14:11.304Z,20.50
2018-08-16T10:16:40.785Z,20.60
2018-08-16T10:29:06.252Z,20.50
2018-08-16T10:44:40.898Z,19.90
2018-08-16T10:47:10.199Z,19.60
2018-08-16T10:49:39.539Z,19.50
2018-08-16T10:52:14.984Z,19.60
2018-08-16T11:07:08.661Z,19.20
2018-08-16T11:09:44.168Z,19.10
2018-08-16T11:14:42.338Z,19.20
2018-08-16T11:42:59.223Z,18.50
2018-08-16T11:57:52.808Z,18.70
2018-08-16T12:00:22.388Z,18.80
2018-08-16T12:07:49.316Z,18.60
2018-08-16T12:20:13.968Z,19.50
2018-08-16T12:25:12.121Z,19.60
2018-08-16T12:30:10.475Z,19.60
2018-08-16T12:37:38.034Z,18.80
2018-08-16T13:02:31.541Z,18.50
2018-08-16T13:16:00.764Z,19.20
2018-08-16T13:26:22.834Z,18.40
2018-08-16T13:57:16.038Z,18.20
2018-08-16T14:02:14.792Z,17.90
2018-08-16T14:09:41.869Z,17.70
2018-08-16T14:20:10.948Z,17.50
2018-08-16T14:30:38.405Z,17.20
2018-08-16T14:35:56.842Z,16.90
2018-08-16T14:40:55.089Z,16.70
2018-08-16T14:53:47.349Z,16.40
2018-08-16T15:01:22.870Z,16.30
2018-08-16T15:06:21.225Z,16.20
2018-08-16T15:11:21.778Z,16.20
2018-08-16T15:16:20.272Z,16.30
2018-08-16T15:35:16.998Z,16.20
2018-08-16T15:38:02.195Z,16.20
2018-08-16T15:58:25.304Z,16.20
2018-08-16T16:08:53.560Z,16.30
2018-08-16T16:18:57.320Z,16.60
2018-08-16T16:42:13.917Z,16.80
2018-08-16T16:52:09.981Z,16.80
2018-08-16T16:54:39.382Z,16.70
2018-08-16T17:17:50.786Z,16.60
2018-08-16T17:40:35.971Z,16.60
2018-08-16T17:53:07.629Z,16.30
2018-08-16T17:55:37.726Z,16.30
2018-08-16T19:44:35.842Z,15.70
2018-08-16T22:36:07.174Z,15.00
